<?xml version="1.0" encoding="UTF-8"?>
<gpx creator="Garmin Connect" version="1.1"
  xsi:schemaLocation="http://www.topografix.com/GPX/1/1 http://www.topografix.com/GPX/11.xsd"
  xmlns:ns3="http://www.garmin.com/xmlschemas/TrackPointExtension/v1"
  xmlns="http://www.topografix.com/GPX/1/1"
  xmlns:xsi="http://www.w3.org/2001/XMLSchema-instance" xmlns:ns2="http://www.garmin.com/xmlschemas/GpxExtensions/v3">
  <metadata>
    <name>TapanilanTaival</name>
    <link href="connect.garmin.com">
      <text>Garmin Connect</text>
    </link>
    <time>2020-10-30T13:09:02.000Z</time>
  </metadata>
  <trk>
    <name>TapanilanTaival</name>
    <trkseg>
      <trkpt lat="60.98318797260828" lon="25.6199263131682">
        <ele>107.24356079101562</ele>
        <time>2020-10-30T13:09:02.000Z</time>
      </trkpt>
      <trkpt lat="60.983389634185826" lon="25.619931360706634">
        <ele>107.04696655273438</ele>
        <time>2020-10-30T13:09:02.004Z</time>
      </trkpt>
      <trkpt lat="60.98343347256523" lon="25.619961567565724">
        <ele>106.98677062988281</ele>
        <time>2020-10-30T13:09:02.009Z</time>
      </trkpt>
      <trkpt lat="60.983683922806165" lon="25.62000310979781">
        <ele>106.7214584350586</ele>
        <time>2020-10-30T13:09:02.019Z</time>
      </trkpt>
      <trkpt lat="60.983750307479276" lon="25.619437834247904">
        <ele>106.99683380126953</ele>
        <time>2020-10-30T13:09:02.035Z</time>
      </trkpt>
      <trkpt lat="60.98369597232493" lon="25.618401496773263">
        <ele>107.67066192626953</ele>
        <time>2020-10-30T13:09:02.061Z</time>
      </trkpt>
      <trkpt lat="60.983674350809494" lon="25.61804433952742">
        <ele>107.9056625366211</ele>
        <time>2020-10-30T13:09:02.090Z</time>
      </trkpt>
      <trkpt lat="60.983661768679724" lon="25.617968128564478">
        <ele>107.96345520019531</ele>
        <time>2020-10-30T13:09:02.120Z</time>
      </trkpt>
      <trkpt lat="60.98366362834484" lon="25.61789704721022">
        <ele>108.00431060791016</ele>
        <time>2020-10-30T13:09:02.151Z</time>
      </trkpt>
      <trkpt lat="60.98370531924523" lon="25.617699278120355">
        <ele>108.08293151855469</ele>
        <time>2020-10-30T13:09:02.184Z</time>
      </trkpt>
      <trkpt lat="60.9837275749832" lon="25.61755265012347">
        <ele>108.14952850341797</ele>
        <time>2020-10-30T13:09:02.218Z</time>
      </trkpt>
      <trkpt lat="60.983621276984" lon="25.61677227891463">
        <ele>108.71968078613281</ele>
        <time>2020-10-30T13:09:02.260Z</time>
      </trkpt>
      <trkpt lat="60.98345437204311" lon="25.616061581460517">
        <ele>109.30621337890625</ele>
        <time>2020-10-30T13:09:02.310Z</time>
      </trkpt>
      <trkpt lat="60.983353825799384" lon="25.615494327398867">
        <ele>109.74300384521484</ele>
        <time>2020-10-30T13:09:02.366Z</time>
      </trkpt>
      <trkpt lat="60.98327034621898" lon="25.615130499820225">
        <ele>110.0413818359375</ele>
        <time>2020-10-30T13:09:02.426Z</time>
      </trkpt>
      <trkpt lat="60.983290083932296" lon="25.614824816912005">
        <ele>110.205810546875</ele>
        <time>2020-10-30T13:09:02.489Z</time>
      </trkpt>
      <trkpt lat="60.98327991507329" lon="25.614608014002442">
        <ele>110.34562683105469</ele>
        <time>2020-10-30T13:09:02.554Z</time>
      </trkpt>
      <trkpt lat="60.983279916766634" lon="25.61460920652086">
        <ele>110.34490966796875</ele>
        <time>2020-10-30T13:09:02.619Z</time>
      </trkpt>
      <trkpt lat="60.98327924452104" lon="25.614136364310973">
        <ele>110.77186584472656</ele>
        <time>2020-10-30T13:09:02.689Z</time>
      </trkpt>
      <trkpt lat="60.98339273548998" lon="25.61345214955509">
        <ele>111.83901977539062</ele>
        <time>2020-10-30T13:09:02.766Z</time>
      </trkpt>
      <trkpt lat="60.983410640193476" lon="25.612660846809142">
        <ele>113.07319641113281</ele>
        <time>2020-10-30T13:09:02.850Z</time>
      </trkpt>
      <trkpt lat="60.983284860396154" lon="25.61194567009807">
        <ele>114.18863677978516</ele>
        <time>2020-10-30T13:09:02.942Z</time>
      </trkpt>
      <trkpt lat="60.983167597570784" lon="25.61138961464163">
        <ele>115.05590057373047</ele>
        <time>2020-10-30T13:09:03.040Z</time>
      </trkpt>
      <trkpt lat="60.98326968915141" lon="25.61050691641863">
        <ele>116.43262481689453</ele>
        <time>2020-10-30T13:09:03.146Z</time>
      </trkpt>
      <trkpt lat="60.98343690811969" lon="25.609685070812677">
        <ele>117.71443939208984</ele>
        <time>2020-10-30T13:09:03.261Z</time>
      </trkpt>
      <trkpt lat="60.98345057062187" lon="25.608849730342637">
        <ele>118.39126586914062</ele>
        <time>2020-10-30T13:09:03.384Z</time>
      </trkpt>
      <trkpt lat="60.98340824201086" lon="25.608099717646827">
        <ele>118.84117889404297</ele>
        <time>2020-10-30T13:09:03.515Z</time>
      </trkpt>
      <trkpt lat="60.983374714398145" lon="25.607960745692242">
        <ele>118.92454528808594</ele>
        <time>2020-10-30T13:09:03.647Z</time>
      </trkpt>
      <trkpt lat="60.98326281599083" lon="25.60732598416507">
        <ele>119.30532836914062</ele>
        <time>2020-10-30T13:09:03.786Z</time>
      </trkpt>
      <trkpt lat="60.983090903156786" lon="25.606604805216197">
        <ele>119.73794555664062</ele>
        <time>2020-10-30T13:09:03.933Z</time>
      </trkpt>
      <trkpt lat="60.98301462783792" lon="25.605652537196846">
        <ele>120.32884216308594</ele>
        <time>2020-10-30T13:09:04.089Z</time>
      </trkpt>
      <trkpt lat="60.983014526688414" lon="25.605655084555355">
        <ele>120.32572937011719</ele>
        <time>2020-10-30T13:09:04.245Z</time>
      </trkpt>
      <trkpt lat="60.98304706580319" lon="25.60483555309472">
        <ele>121.32848358154297</ele>
        <time>2020-10-30T13:09:04.409Z</time>
      </trkpt>
      <trkpt lat="60.98294991954541" lon="25.604408914223303">
        <ele>121.78205871582031</ele>
        <time>2020-10-30T13:09:04.578Z</time>
      </trkpt>
      <trkpt lat="60.982985039719715" lon="25.604224512353493">
        <ele>122.02436828613281</ele>
        <time>2020-10-30T13:09:04.749Z</time>
      </trkpt>
      <trkpt lat="60.983047820174455" lon="25.604046732187236">
        <ele>122.27532196044922</ele>
        <time>2020-10-30T13:09:04.922Z</time>
      </trkpt>
      <trkpt lat="60.98313733890036" lon="25.603385316207973">
        <ele>123.12255859375</ele>
        <time>2020-10-30T13:09:05.101Z</time>
      </trkpt>
      <trkpt lat="60.98312811880686" lon="25.603248942643408">
        <ele>123.2806396484375</ele>
        <time>2020-10-30T13:09:05.282Z</time>
      </trkpt>
      <trkpt lat="60.98302971526361" lon="25.60254704207178">
        <ele>124.06371307373047</ele>
        <time>2020-10-30T13:09:05.470Z</time>
      </trkpt>
      <trkpt lat="60.98292410328366" lon="25.6020511686802">
        <ele>124.59528350830078</ele>
        <time>2020-10-30T13:09:05.663Z</time>
      </trkpt>
      <trkpt lat="60.98287892482555" lon="25.60131917707622">
        <ele>125.44638061523438</ele>
        <time>2020-10-30T13:09:05.863Z</time>
      </trkpt>
      <trkpt lat="60.98286177306034" lon="25.600760240787256">
        <ele>125.71635437011719</ele>
        <time>2020-10-30T13:09:06.069Z</time>
      </trkpt>
      <trkpt lat="60.98296374968565" lon="25.600272612646208">
        <ele>125.89453887939453</ele>
        <time>2020-10-30T13:09:06.280Z</time>
      </trkpt>
      <trkpt lat="60.98311923398948" lon="25.599723095074253">
        <ele>126.11967468261719</ele>
        <time>2020-10-30T13:09:06.497Z</time>
      </trkpt>
      <trkpt lat="60.98314949265994" lon="25.59939946979279">
        <ele>126.2154769897461</ele>
        <time>2020-10-30T13:09:06.717Z</time>
      </trkpt>
      <trkpt lat="60.98311990454174" lon="25.59899579733608">
        <ele>126.29458618164062</ele>
        <time>2020-10-30T13:09:06.941Z</time>
      </trkpt>
      <trkpt lat="60.98308755039551" lon="25.598168503493063">
        <ele>126.47368621826172</ele>
        <time>2020-10-30T13:09:07.173Z</time>
      </trkpt>
      <trkpt lat="60.98309459119416" lon="25.598003799095732">
        <ele>126.5174331665039</ele>
        <time>2020-10-30T13:09:07.407Z</time>
      </trkpt>
      <trkpt lat="60.98312032363689" lon="25.597922997549148">
        <ele>126.55226135253906</ele>
        <time>2020-10-30T13:09:07.642Z</time>
      </trkpt>
      <trkpt lat="60.98312116182722" lon="25.59789768420154">
        <ele>126.558837890625</ele>
        <time>2020-10-30T13:09:07.877Z</time>
      </trkpt>
      <trkpt lat="60.98316432862856" lon="25.59805576689536">
        <ele>126.54679870605469</ele>
        <time>2020-10-30T13:09:08.114Z</time>
      </trkpt>
      <trkpt lat="60.98320623814439" lon="25.59809583239257">
        <ele>126.56232452392578</ele>
        <time>2020-10-30T13:09:08.352Z</time>
      </trkpt>
      <trkpt lat="60.983251332783475" lon="25.597965577617238">
        <ele>126.62063598632812</ele>
        <time>2020-10-30T13:09:08.591Z</time>
      </trkpt>
      <trkpt lat="60.98328008271136" lon="25.597809590399272">
        <ele>126.67530822753906</ele>
        <time>2020-10-30T13:09:08.832Z</time>
      </trkpt>
      <trkpt lat="60.98347755247851" lon="25.596973946312428">
        <ele>127.094970703125</ele>
        <time>2020-10-30T13:09:09.082Z</time>
      </trkpt>
      <trkpt lat="60.98347710824166" lon="25.59697516716294">
        <ele>127.0942153930664</ele>
        <time>2020-10-30T13:09:09.332Z</time>
      </trkpt>
      <trkpt lat="60.98365758503057" lon="25.59647917605708">
        <ele>127.40265655517578</ele>
        <time>2020-10-30T13:09:09.588Z</time>
      </trkpt>
      <trkpt lat="60.983967022658064" lon="25.595804440310356">
        <ele>127.86827087402344</ele>
        <time>2020-10-30T13:09:09.853Z</time>
      </trkpt>
      <trkpt lat="60.98409990502845" lon="25.595407905650482">
        <ele>128.1066436767578</ele>
        <time>2020-10-30T13:09:10.123Z</time>
      </trkpt>
      <trkpt lat="60.9843267309604" lon="25.59501942247151">
        <ele>128.40975952148438</ele>
        <time>2020-10-30T13:09:10.399Z</time>
      </trkpt>
      <trkpt lat="60.98441524385789" lon="25.59463578276336">
        <ele>128.61155700683594</ele>
        <time>2020-10-30T13:09:10.679Z</time>
      </trkpt>
      <trkpt lat="60.98443368404485" lon="25.594606027007092">
        <ele>128.6355438232422</ele>
        <time>2020-10-30T13:09:10.959Z</time>
      </trkpt>
      <trkpt lat="60.984467721700476" lon="25.594256886242384">
        <ele>128.7857208251953</ele>
        <time>2020-10-30T13:09:11.243Z</time>
      </trkpt>
      <trkpt lat="60.984537116729996" lon="25.593770351260915">
        <ele>129.0107879638672</ele>
        <time>2020-10-30T13:09:11.532Z</time>
      </trkpt>
      <trkpt lat="60.98457240454234" lon="25.59335653670131">
        <ele>129.1851348876953</ele>
        <time>2020-10-30T13:09:11.825Z</time>
      </trkpt>
      <trkpt lat="60.984689200901556" lon="25.59246235702696">
        <ele>129.5023956298828</ele>
        <time>2020-10-30T13:09:12.127Z</time>
      </trkpt>
      <trkpt lat="60.984751190537025" lon="25.591836981475357">
        <ele>129.62203979492188</ele>
        <time>2020-10-30T13:09:12.435Z</time>
      </trkpt>
      <trkpt lat="60.984769966000115" lon="25.591760622337418">
        <ele>129.6447296142578</ele>
        <time>2020-10-30T13:09:12.744Z</time>
      </trkpt>
      <trkpt lat="60.984871470847516" lon="25.591171123087403">
        <ele>129.78851318359375</ele>
        <time>2020-10-30T13:09:13.059Z</time>
      </trkpt>
      <trkpt lat="60.984933077835834" lon="25.59102175757286">
        <ele>129.8507843017578</ele>
        <time>2020-10-30T13:09:13.376Z</time>
      </trkpt>
      <trkpt lat="60.98493232346454" lon="25.590886389836616">
        <ele>129.88882446289062</ele>
        <time>2020-10-30T13:09:13.694Z</time>
      </trkpt>
      <trkpt lat="60.98495084747054" lon="25.590626802295454">
        <ele>130.0667724609375</ele>
        <time>2020-10-30T13:09:14.015Z</time>
      </trkpt>
      <trkpt lat="60.98498814693967" lon="25.59037500992412">
        <ele>130.2625732421875</ele>
        <time>2020-10-30T13:09:14.338Z</time>
      </trkpt>
      <trkpt lat="60.98505788437405" lon="25.59021550230683">
        <ele>130.44192504882812</ele>
        <time>2020-10-30T13:09:14.664Z</time>
      </trkpt>
      <trkpt lat="60.985142709234154" lon="25.58968719094991">
        <ele>130.86062622070312</ele>
        <time>2020-10-30T13:09:14.995Z</time>
      </trkpt>
      <trkpt lat="60.985186043673544" lon="25.589342443272454">
        <ele>131.11941528320312</ele>
        <time>2020-10-30T13:09:15.329Z</time>
      </trkpt>
      <trkpt lat="60.98519015080609" lon="25.589155526831714">
        <ele>131.23646545410156</ele>
        <time>2020-10-30T13:09:15.665Z</time>
      </trkpt>
      <trkpt lat="60.98535728595534" lon="25.588664850220066">
        <ele>131.73133850097656</ele>
        <time>2020-10-30T13:09:16.007Z</time>
      </trkpt>
      <trkpt lat="60.98535658856702" lon="25.58866667967869">
        <ele>131.7294158935547</ele>
        <time>2020-10-30T13:09:16.349Z</time>
      </trkpt>
      <trkpt lat="60.98562877579908" lon="25.587952639907577">
        <ele>132.48431396484375</ele>
        <time>2020-10-30T13:09:16.700Z</time>
      </trkpt>
      <trkpt lat="60.98579121708255" lon="25.587655920535322">
        <ele>132.85720825195312</ele>
        <time>2020-10-30T13:09:17.055Z</time>
      </trkpt>
      <trkpt lat="60.985858020850834" lon="25.587649801745982">
        <ele>132.94102478027344</ele>
        <time>2020-10-30T13:09:17.412Z</time>
      </trkpt>
      <trkpt lat="60.98607310048621" lon="25.58780553750692">
        <ele>133.10565185546875</ele>
        <time>2020-10-30T13:09:17.773Z</time>
      </trkpt>
      <trkpt lat="60.98634609907251" lon="25.587956160306934">
        <ele>133.3428497314453</ele>
        <time>2020-10-30T13:09:18.140Z</time>
      </trkpt>
      <trkpt lat="60.98658649205546" lon="25.58796722441911">
        <ele>133.6246337890625</ele>
        <time>2020-10-30T13:09:18.512Z</time>
      </trkpt>
      <trkpt lat="60.98663284397998" lon="25.58791391551496">
        <ele>133.71221923828125</ele>
        <time>2020-10-30T13:09:18.885Z</time>
      </trkpt>
      <trkpt lat="60.98669419951121" lon="25.58773077093065">
        <ele>133.8957061767578</ele>
        <time>2020-10-30T13:09:19.260Z</time>
      </trkpt>
      <trkpt lat="60.986749520072166" lon="25.587526420131333">
        <ele>134.08465576171875</ele>
        <time>2020-10-30T13:09:19.637Z</time>
      </trkpt>
      <trkpt lat="60.986974238896174" lon="25.58684706687926">
        <ele>134.109375</ele>
        <time>2020-10-30T13:09:20.022Z</time>
      </trkpt>
      <trkpt lat="60.98706224887948" lon="25.58671203441917">
        <ele>133.89471435546875</ele>
        <time>2020-10-30T13:09:20.409Z</time>
      </trkpt>
      <trkpt lat="60.987103487843086" lon="25.586619582027208">
        <ele>133.81163024902344</ele>
        <time>2020-10-30T13:09:20.798Z</time>
      </trkpt>
      <trkpt lat="60.98720926746112" lon="25.58652335777878">
        <ele>133.5139923095703</ele>
        <time>2020-10-30T13:09:21.189Z</time>
      </trkpt>
      <trkpt lat="60.987514368736555" lon="25.58618992567062">
        <ele>132.6890411376953</ele>
        <time>2020-10-30T13:09:21.587Z</time>
      </trkpt>
      <trkpt lat="60.98802884995324" lon="25.58572883717713">
        <ele>131.23727416992188</ele>
        <time>2020-10-30T13:09:21.996Z</time>
      </trkpt>
      <trkpt lat="60.988213587099125" lon="25.585545189678612">
        <ele>131.52847290039062</ele>
        <time>2020-10-30T13:09:22.409Z</time>
      </trkpt>
      <trkpt lat="60.98835783965272" lon="25.585343940183524">
        <ele>131.99363708496094</ele>
        <time>2020-10-30T13:09:22.826Z</time>
      </trkpt>
      <trkpt lat="60.9884661338417" lon="25.585239250212855">
        <ele>132.2036895751953</ele>
        <time>2020-10-30T13:09:23.245Z</time>
      </trkpt>
      <trkpt lat="60.988502846577596" lon="25.585252912715028">
        <ele>132.12747192382812</ele>
        <time>2020-10-30T13:09:23.665Z</time>
      </trkpt>
      <trkpt lat="60.98852430424972" lon="25.585311669856292">
        <ele>131.93064880371094</ele>
        <time>2020-10-30T13:09:24.086Z</time>
      </trkpt>
      <trkpt lat="60.98856210663303" lon="25.58534963987767">
        <ele>131.7804718017578</ele>
        <time>2020-10-30T13:09:24.508Z</time>
      </trkpt>
      <trkpt lat="60.98863352044804" lon="25.58532013557849">
        <ele>131.8004150390625</ele>
        <time>2020-10-30T13:09:24.931Z</time>
      </trkpt>
      <trkpt lat="60.98872505083068" lon="25.585229024291028">
        <ele>131.98583984375</ele>
        <time>2020-10-30T13:09:25.356Z</time>
      </trkpt>
      <trkpt lat="60.988976340287785" lon="25.584681266918782">
        <ele>133.3875732421875</ele>
        <time>2020-10-30T13:09:25.788Z</time>
      </trkpt>
      <trkpt lat="60.9889758074463" lon="25.58468354254508">
        <ele>133.38125610351562</ele>
        <time>2020-10-30T13:09:26.220Z</time>
      </trkpt>
      <trkpt lat="60.98915554537755" lon="25.583915915340153">
        <ele>134.39613342285156</ele>
        <time>2020-10-30T13:09:26.661Z</time>
      </trkpt>
      <trkpt lat="60.98933550483866" lon="25.5832130927592">
        <ele>134.98228454589844</ele>
        <time>2020-10-30T13:09:27.109Z</time>
      </trkpt>
      <trkpt lat="60.98940532609207" lon="25.583003545179913">
        <ele>135.14154052734375</ele>
        <time>2020-10-30T13:09:27.560Z</time>
      </trkpt>
      <trkpt lat="60.98953633523866" lon="25.582678159698837">
        <ele>135.3671417236328</ele>
        <time>2020-10-30T13:09:28.015Z</time>
      </trkpt>
      <trkpt lat="60.989600875893075" lon="25.582491578534245">
        <ele>135.50665283203125</ele>
        <time>2020-10-30T13:09:28.472Z</time>
      </trkpt>
      <trkpt lat="60.98986809096619" lon="25.582309858873447">
        <ele>135.44638061523438</ele>
        <time>2020-10-30T13:09:28.935Z</time>
      </trkpt>
      <trkpt lat="60.990003877797555" lon="25.582420164719228">
        <ele>135.1969451904297</ele>
        <time>2020-10-30T13:09:29.401Z</time>
      </trkpt>
      <trkpt lat="60.9902338772206" lon="25.582548910751928">
        <ele>134.837158203125</ele>
        <time>2020-10-30T13:09:29.872Z</time>
      </trkpt>
      <trkpt lat="60.99031518168136" lon="25.582619821652717">
        <ele>134.68255615234375</ele>
        <time>2020-10-30T13:09:30.344Z</time>
      </trkpt>
      <trkpt lat="60.99038282363996" lon="25.582659551873746">
        <ele>134.57473754882812</ele>
        <time>2020-10-30T13:09:30.818Z</time>
      </trkpt>
      <trkpt lat="60.99049153692408" lon="25.58280321769411">
        <ele>134.3152618408203</ele>
        <time>2020-10-30T13:09:31.294Z</time>
      </trkpt>
      <trkpt lat="60.99069496571409" lon="25.58292408473787">
        <ele>133.98948669433594</ele>
        <time>2020-10-30T13:09:31.775Z</time>
      </trkpt>
      <trkpt lat="60.990891940438615" lon="25.582709508016677">
        <ele>134.03211975097656</ele>
        <time>2020-10-30T13:09:32.260Z</time>
      </trkpt>
      <trkpt lat="60.99095279305565" lon="25.58267757296561">
        <ele>134.00819396972656</ele>
        <time>2020-10-30T13:09:32.746Z</time>
      </trkpt>
      <trkpt lat="60.99101364567267" lon="25.582692157477084">
        <ele>133.9340362548828</ele>
        <time>2020-10-30T13:09:33.234Z</time>
      </trkpt>
      <trkpt lat="60.99117063871906" lon="25.582854095846418">
        <ele>133.60848999023438</ele>
        <time>2020-10-30T13:09:33.725Z</time>
      </trkpt>
      <trkpt lat="60.991359902092675" lon="25.582974543794972">
        <ele>133.29676818847656</ele>
        <time>2020-10-30T13:09:34.220Z</time>
      </trkpt>
      <trkpt lat="60.99161705888197" lon="25.582900028675787">
        <ele>133.13040161132812</ele>
        <time>2020-10-30T13:09:34.720Z</time>
      </trkpt>
      <trkpt lat="60.99187941245124" lon="25.582618648186287">
        <ele>133.1824188232422</ele>
        <time>2020-10-30T13:09:35.226Z</time>
      </trkpt>
      <trkpt lat="60.99209097168731" lon="25.582415051758254">
        <ele>133.19918823242188</ele>
        <time>2020-10-30T13:09:35.737Z</time>
      </trkpt>
      <trkpt lat="60.99246472074973" lon="25.5821152310818">
        <ele>133.1641845703125</ele>
        <time>2020-10-30T13:09:36.256Z</time>
      </trkpt>
      <trkpt lat="60.99249497942019" lon="25.582059659063813">
        <ele>133.1951446533203</ele>
        <time>2020-10-30T13:09:36.776Z</time>
      </trkpt>
    </trkseg>
  </trk>
</gpx>
